Список аэропортов
Фактическая погода:

26 апреля, 11:50
Температура: +22°C (+22.0*)
Ветер: перем. 2 м/с
Давление: *761 мм
Без существ. явл.
Время (МСК)Темп. СВетерВлажностьДавлениеОблачностьОсадки
09:00+13СВ, 3 м/с69%1015 гПас прояснениями
10:00+16СВ, 2 м/с57%1015 гПаоблачно
11:00+19В, 2 м/с50%1015 гПаоблачно
12:00+21Ю, 2 м/с49%1015 гПамалооблачно
13:00+22Ю, 3 м/с53%1015 гПамалооблачно
14:00+21ЮЗ, 4 м/с59%1015 гПаясно
15:00+22ЮЗ, 4 м/с53%1014 гПамалооблачно
16:00+22ЮЗ, 3 м/с52%1014 гПаоблачно
17:00+22ЮЗ, 3 м/с50%1013 гПаоблачно
18:00+22З, 3 м/с49%1013 гПаоблачно
19:00+21З, 3 м/с51%1013 гПас прояснениями
20:00+20З, 2 м/с56%1013 гПаоблачно
21:00+19З, 2 м/с66%1013 гПаоблачно
22:00+17З, 2 м/с80%1013 гПаоблачно
23:00+16СЗ, 1 м/с88%1013 гПаоблачно
27 апреля
00:00+16СЗ, 2 м/с95%1013 гПас прояснениями
01:00+15СЗ, 2 м/с95%1013 гПас прояснениями
02:00+14С, 2 м/с91%1013 гПас прояснениями
03:00+14С, 2 м/с89%1013 гПас прояснениями
04:00+13СВ, 2 м/с90%1013 гПас прояснениями
05:00+12СВ, 1 м/с91%1012 гПаоблачно
06:00+12С, 2 м/с87%1012 гПаоблачно
07:00+12С, 2 м/с86%1012 гПаоблачно
08:00+12СВ, 2 м/с88%1012 гПаоблачно
09:00+15СВ, 4 м/с75%1012 гПаоблачно
10:00+18СВ, 3 м/с62%1012 гПаоблачно
11:00+21СВ, 3 м/с53%1013 гПаясно
12:00+23В, 1 м/с47%1013 гПамалооблачно
13:00+24Ю, 2 м/с48%1012 гПас прояснениями
14:00+25ЮЗ, 2 м/с48%1012 гПаоблачно
15:00+25ЮЗ, 3 м/с48%1012 гПаоблачно
16:00+24ЮЗ, 3 м/с49%1012 гПаясно
17:00+24ЮЗ, 3 м/с50%1012 гПаоблачно
18:00+22ЮЗ, 3 м/с53%1012 гПаоблачно
19:00+22З, 2 м/с54%1012 гПаоблачно
20:00+21З, 2 м/с56%1012 гПаоблачно
21:00+20СЗ, 1 м/с62%1012 гПаоблачно
22:00+19СВ, 1 м/с70%1013 гПаоблачно
23:00+18В, 2 м/с70%1013 гПаоблачно
28 апреля
00:00+17В, 1 м/с73%1013 гПаоблачно
01:00+17СВ, 2 м/с76%1013 гПаоблачно
02:00+16СВ, 2 м/с84%1013 гПаоблачно
03:00+16СВ, 2 м/с87%1012 гПаоблачно
04:00+17СВ, 3 м/с85%1012 гПаоблачно
05:00+16СВ, 3 м/с89%1012 гПас прояснениями
06:00+16СВ, 3 м/с92%1012 гПас прояснениями
07:00+16СВ, 3 м/с91%1012 гПас прояснениями
08:00+16СВ, 3 м/с87%1013 гПаоблачно
09:00+18СВ, 3 м/с77%1013 гПаоблачно